Time;durP1;ratioP1;P1;durP2;ratioP2;P2;SDS_P1;SDS_P2;PMS_P1;PMS_P2;Temp;Humidity;BMP_temperature;BMP_pressure;BME280_temperature;BME280_humidity;BME280_pressure;Samples;Min_cycle;Max_cycle;Signal;HPM_P1;HPM_P2
2023/12/23 00:00:52;;;;;;;13.40;3.10;;;8.60;99.90;;;;;;5033634;28;20022;-88
2023/12/23 00:03:18;;;;;;;19.63;2.58;;;8.60;99.90;;;;;;5033556;28;20562;-88
2023/12/23 00:05:43;;;;;;;12.30;1.73;;;8.60;99.90;;;;;;5032312;28;20174;-87
2023/12/23 00:08:09;;;;;;;13.43;2.58;;;8.60;99.90;;;;;;5032587;28;20064;-88
2023/12/23 00:10:35;;;;;;;17.08;2.78;;;8.70;99.90;;;;;;5032339;28;20060;-88
2023/12/23 00:13:01;;;;;;;16.67;2.75;;;8.70;99.90;;;;;;5032413;28;20021;-88
2023/12/23 00:15:26;;;;;;;17.45;2.63;;;8.70;99.90;;;;;;5032062;28;20500;-87
2023/12/23 00:17:52;;;;;;;8.10;1.58;;;8.70;99.90;;;;;;5032355;28;20388;-88
2023/12/23 00:20:17;;;;;;;10.32;2.85;;;8.70;99.90;;;;;;5031498;28;20033;-87
2023/12/23 00:22:43;;;;;;;16.45;2.58;;;8.80;99.90;;;;;;5032088;28;20033;-87
2023/12/23 00:25:09;;;;;;;13.68;2.10;;;8.80;99.90;;;;;;5032157;28;20021;-87
2023/12/23 00:27:35;;;;;;;19.10;4.68;;;8.80;99.90;;;;;;5032015;28;20029;-87
2023/12/23 00:30:01;;;;;;;14.73;1.95;;;8.80;99.90;;;;;;5032057;28;20025;-87
2023/12/23 00:32:26;;;;;;;15.00;2.75;;;8.80;99.90;;;;;;5030167;28;20522;-87
2023/12/23 00:34:52;;;;;;;16.85;2.47;;;8.90;99.90;;;;;;5031833;28;20546;-87
2023/12/23 00:37:18;;;;;;;13.07;2.17;;;8.90;99.90;;;;;;5031931;28;20166;-86
2023/12/23 00:39:44;;;;;;;16.98;2.80;;;8.90;99.90;;;;;;5032359;28;20031;-87
2023/12/23 00:42:09;;;;;;;9.02;2.35;;;8.90;99.90;;;;;;5033076;28;20087;-86
2023/12/23 00:44:35;;;;;;;14.07;2.15;;;9.00;99.90;;;;;;5031819;28;20120;-86
2023/12/23 00:47:01;;;;;;;13.77;2.28;;;9.00;99.90;;;;;;5031943;28;20022;-85
2023/12/23 00:49:26;;;;;;;14.73;2.92;;;9.00;99.90;;;;;;5033014;28;20108;-87
2023/12/23 00:51:52;;;;;;;11.00;1.55;;;9.00;99.90;;;;;;5031588;28;20025;-88
2023/12/23 00:54:19;;;;;;;10.27;2.30;;;9.00;99.90;;;;;;5031587;28;20041;-88
2023/12/23 00:56:44;;;;;;;14.55;1.95;;;9.10;99.90;;;;;;5031780;28;20076;-88
2023/12/23 00:59:10;;;;;;;14.75;2.08;;;9.10;99.90;;;;;;5031664;28;20431;-87
2023/12/23 01:01:36;;;;;;;9.88;2.47;;;9.10;99.90;;;;;;5031666;28;20032;-87
2023/12/23 01:04:01;;;;;;;21.40;1.90;;;9.10;99.90;;;;;;5031574;28;20098;-87
2023/12/23 01:06:27;;;;;;;11.20;1.77;;;9.10;99.90;;;;;;5031682;28;20117;-87
2023/12/23 01:08:53;;;;;;;14.00;1.90;;;9.10;99.90;;;;;;5031645;28;20037;-87
2023/12/23 01:11:18;;;;;;;5.78;1.30;;;9.20;99.90;;;;;;5031824;28;20459;-88
2023/12/23 01:13:44;;;;;;;19.05;1.80;;;9.20;99.90;;;;;;5031663;28;20532;-88
2023/12/23 01:16:10;;;;;;;13.55;2.13;;;9.20;99.90;;;;;;5031877;28;20472;-88
2023/12/23 01:18:35;;;;;;;11.13;2.00;;;9.20;99.90;;;;;;5031447;28;20033;-88
2023/12/23 01:21:01;;;;;;;9.95;2.20;;;9.20;99.90;;;;;;5031679;28;20160;-87
2023/12/23 01:23:26;;;;;;;14.27;1.70;;;9.20;99.90;;;;;;5033233;28;20520;-87
2023/12/23 01:25:52;;;;;;;10.02;2.10;;;9.20;99.90;;;;;;5032753;28;20037;-87
2023/12/23 01:28:18;;;;;;;11.27;2.33;;;9.20;99.90;;;;;;5032881;28;20037;-87
2023/12/23 01:30:43;;;;;;;14.35;2.40;;;9.20;99.90;;;;;;5033981;28;20022;-88
2023/12/23 01:33:10;;;;;;;13.73;1.98;;;9.20;99.90;;;;;;5036913;28;20203;-88
2023/12/23 01:35:36;;;;;;;9.18;2.05;;;9.20;99.90;;;;;;5037560;28;20084;-87
2023/12/23 01:38:01;;;;;;;17.13;2.00;;;9.20;99.90;;;;;;5035951;28;20345;-87
2023/12/23 01:40:27;;;;;;;10.38;1.80;;;9.30;99.90;;;;;;5035175;28;20029;-87
2023/12/23 01:42:53;;;;;;;7.57;1.50;;;9.30;99.90;;;;;;5036586;28;20029;-87
2023/12/23 01:45:19;;;;;;;9.48;1.67;;;9.30;99.90;;;;;;5036661;28;20030;-87
2023/12/23 01:47:47;;;;;;;8.15;1.77;;;9.40;99.90;;;;;;5035397;28;20028;-87
2023/12/23 01:50:14;;;;;;;9.45;1.80;;;9.30;99.90;;;;;;5035894;28;20272;-88
2023/12/23 01:52:40;;;;;;;5.57;1.38;;;9.40;99.90;;;;;;5036047;28;20049;-86
2023/12/23 01:55:06;;;;;;;16.77;1.80;;;9.40;99.90;;;;;;5036064;28;20047;-87
2023/12/23 01:57:32;;;;;;;7.20;2.28;;;9.40;99.90;;;;;;5037040;28;20514;-87
2023/12/23 01:59:58;;;;;;;7.97;1.70;;;9.50;99.90;;;;;;5037375;28;20507;-87
2023/12/23 02:02:25;;;;;;;13.40;2.33;;;9.40;99.90;;;;;;5035795;28;20034;-87
2023/12/23 02:04:51;;;;;;;9.90;1.40;;;9.50;99.90;;;;;;5036110;28;20082;-87
2023/12/23 02:07:17;;;;;;;6.57;1.35;;;9.50;99.90;;;;;;5036039;28;20025;-88
2023/12/23 02:09:42;;;;;;;12.82;2.13;;;9.50;99.90;;;;;;5035821;28;20031;-88
2023/12/23 02:12:29;;;;;;;8.32;2.00;;;9.50;99.90;;;;;;5037536;28;20041;-88
2023/12/23 02:15:14;;;;;;;9.90;1.63;;;9.50;99.90;;;;;;5035653;28;20077;-88
2023/12/23 02:17:40;;;;;;;10.02;1.80;;;9.50;99.90;;;;;;5036657;28;20025;-88
2023/12/23 02:20:06;;;;;;;16.65;2.30;;;9.40;99.90;;;;;;5035529;28;20097;-89
2023/12/23 02:22:32;;;;;;;6.95;1.42;;;9.50;99.90;;;;;;5036271;28;20018;-88
2023/12/23 02:24:58;;;;;;;10.60;1.63;;;9.50;99.90;;;;;;5035092;28;20025;-88
2023/12/23 02:27:36;;;;;;;6.70;1.90;;;9.40;99.90;;;;;;5035004;28;20080;-87
2023/12/23 02:30:03;;;;;;;7.93;1.80;;;9.40;99.90;;;;;;5036186;28;20021;-88
2023/12/23 02:32:30;;;;;;;9.18;3.22;;;9.40;99.90;;;;;;5034424;28;20056;-88
2023/12/23 02:34:55;;;;;;;11.15;2.15;;;9.40;99.90;;;;;;5034344;28;20033;-88
2023/12/23 02:37:21;;;;;;;5.13;1.02;;;9.40;99.90;;;;;;5034617;28;20045;-88
2023/12/23 02:39:47;;;;;;;10.48;1.42;;;9.30;99.90;;;;;;5034536;28;20028;-88
2023/12/23 02:42:12;;;;;;;9.77;1.10;;;9.30;99.90;;;;;;5034273;28;20071;-88
2023/12/23 02:44:38;;;;;;;9.45;2.40;;;9.40;99.90;;;;;;5034031;28;20041;-88
2023/12/23 02:47:04;;;;;;;6.13;1.20;;;9.40;99.90;;;;;;5034943;28;20124;-88
2023/12/23 02:49:30;;;;;;;6.57;1.15;;;9.40;99.90;;;;;;5034320;28;20037;-87
2023/12/23 02:51:56;;;;;;;10.00;1.55;;;9.40;99.90;;;;;;5034070;28;20022;-87
2023/12/23 02:54:21;;;;;;;9.00;1.30;;;9.40;99.90;;;;;;5034257;28;20539;-88
2023/12/23 02:56:47;;;;;;;6.18;1.40;;;9.40;99.90;;;;;;5034260;28;20052;-87
2023/12/23 02:59:13;;;;;;;3.88;1.63;;;9.40;99.90;;;;;;5033839;28;20029;-88
2023/12/23 03:01:38;;;;;;;5.50;0.93;;;9.40;99.90;;;;;;5033906;28;20028;-88
2023/12/23 03:04:04;;;;;;;9.77;1.70;;;9.40;99.90;;;;;;5033900;28;20029;-87
2023/12/23 03:06:30;;;;;;;6.80;1.58;;;9.40;99.90;;;;;;5035002;28;20108;-86
2023/12/23 03:08:55;;;;;;;3.92;1.20;;;9.50;99.90;;;;;;5033699;28;20025;-87
2023/12/23 03:11:21;;;;;;;8.05;1.20;;;9.50;99.90;;;;;;5033572;28;20026;-88
2023/12/23 03:13:47;;;;;;;9.20;1.40;;;9.50;99.90;;;;;;5033256;28;20044;-88
2023/12/23 03:16:18;;;;;;;6.60;0.95;;;9.50;99.90;;;;;;5034494;28;20028;-87
2023/12/23 03:18:45;;;;;;;3.50;1.20;;;9.50;99.90;;;;;;5033293;28;20031;-87
2023/12/23 03:21:11;;;;;;;3.80;1.20;;;9.50;99.90;;;;;;5034512;28;20025;-88
2023/12/23 03:23:37;;;;;;;6.88;1.30;;;9.50;99.90;;;;;;5033169;28;20052;-87
2023/12/23 03:26:03;;;;;;;3.20;0.95;;;9.50;99.90;;;;;;5033084;28;20028;-86
2023/12/23 03:28:29;;;;;;;5.43;1.27;;;9.50;99.90;;;;;;5034594;28;20152;-86
2023/12/23 03:30:54;;;;;;;5.13;1.10;;;9.50;99.90;;;;;;5032914;28;20026;-86
2023/12/23 03:33:20;;;;;;;7.30;0.95;;;9.50;99.90;;;;;;5033011;28;20058;-87
2023/12/23 03:35:46;;;;;;;5.40;0.95;;;9.40;99.90;;;;;;5034301;28;20108;-88
2023/12/23 03:38:11;;;;;;;3.88;0.70;;;9.40;99.90;;;;;;5034160;28;20029;-87
2023/12/23 03:40:37;;;;;;;4.38;0.85;;;9.40;99.90;;;;;;5033974;28;20024;-88
2023/12/23 03:43:03;;;;;;;7.72;0.88;;;9.40;99.90;;;;;;5033804;28;20029;-86
2023/12/23 03:45:28;;;;;;;1.92;0.40;;;9.30;99.90;;;;;;5032643;28;20102;-87
2023/12/23 03:47:54;;;;;;;4.43;0.40;;;9.20;99.90;;;;;;5034091;28;20165;-87
2023/12/23 03:50:20;;;;;;;4.68;0.38;;;9.10;99.90;;;;;;5033850;28;20022;-88
2023/12/23 03:52:45;;;;;;;3.30;0.60;;;9.10;99.90;;;;;;5033501;28;20091;-86
2023/12/23 03:55:11;;;;;;;2.20;0.95;;;9.00;99.90;;;;;;5034512;28;20115;-87
2023/12/23 03:57:37;;;;;;;4.55;0.80;;;9.00;99.90;;;;;;5032490;28;20043;-87
2023/12/23 04:00:04;;;;;;;6.90;1.40;;;9.00;99.90;;;;;;5033700;28;20032;-86
2023/12/23 04:02:30;;;;;;;6.70;1.20;;;9.00;99.90;;;;;;5032428;28;20036;-88
2023/12/23 04:04:56;;;;;;;8.25;1.23;;;9.00;99.90;;;;;;5032349;28;20029;-86
2023/12/23 04:07:22;;;;;;;4.70;0.90;;;9.00;99.90;;;;;;5033764;28;20079;-87
2023/12/23 04:09:48;;;;;;;5.20;0.98;;;9.00;99.90;;;;;;5032310;28;20025;-87
2023/12/23 04:12:13;;;;;;;6.85;1.00;;;9.00;99.90;;;;;;5033429;28;20024;-87
2023/12/23 04:14:40;;;;;;;6.95;1.15;;;9.00;99.90;;;;;;5032287;28;20021;-87
2023/12/23 04:17:07;;;;;;;6.63;1.30;;;9.00;99.90;;;;;;5032219;28;20393;-87
2023/12/23 04:19:32;;;;;;;7.55;1.25;;;9.00;99.90;;;;;;5033484;28;20026;-87
2023/12/23 04:21:58;;;;;;;5.75;1.13;;;9.00;99.90;;;;;;5033464;28;20040;-87
2023/12/23 04:24:26;;;;;;;5.68;1.00;;;9.00;99.90;;;;;;5031957;28;20041;-88
2023/12/23 04:26:55;;;;;;;5.97;1.20;;;8.90;99.90;;;;;;5031861;28;20017;-87
2023/12/23 04:29:21;;;;;;;7.70;1.13;;;8.90;99.90;;;;;;5031997;28;20036;-88
2023/12/23 04:31:46;;;;;;;11.48;1.55;;;8.90;99.90;;;;;;5031720;28;20037;-88
2023/12/23 04:34:12;;;;;;;13.27;1.63;;;8.90;99.90;;;;;;5032001;28;20396;-88
2023/12/23 04:36:38;;;;;;;10.60;1.55;;;8.90;99.90;;;;;;5031764;28;20067;-88
2023/12/23 04:39:05;;;;;;;5.72;0.82;;;8.90;99.90;;;;;;5031866;28;20102;-88
2023/12/23 04:41:34;;;;;;;6.20;1.63;;;8.90;99.90;;;;;;5032943;28;20022;-88
2023/12/23 04:44:02;;;;;;;9.82;1.58;;;8.90;99.90;;;;;;5033454;28;20041;-88
2023/12/23 04:46:28;;;;;;;8.07;1.15;;;8.90;99.90;;;;;;5033333;28;20036;-88
2023/12/23 04:48:54;;;;;;;6.90;1.15;;;8.90;99.90;;;;;;5033151;28;20021;-88
2023/12/23 04:51:20;;;;;;;7.88;0.90;;;8.90;99.90;;;;;;5031931;28;20022;-88
2023/12/23 04:53:45;;;;;;;6.57;1.45;;;8.90;99.90;;;;;;5031950;28;20059;-88
2023/12/23 04:56:11;;;;;;;10.52;1.40;;;8.90;99.90;;;;;;5033291;28;20480;-88
2023/12/23 04:58:37;;;;;;;9.85;1.77;;;8.80;99.90;;;;;;5033754;28;20041;-88
2023/12/23 05:01:02;;;;;;;7.80;1.77;;;8.80;99.90;;;;;;5033993;28;20018;-88
2023/12/23 05:03:33;;;;;;;6.75;1.67;;;8.80;99.90;;;;;;5032450;28;20037;-88
2023/12/23 05:05:59;;;;;;;;;;;8.80;99.90;;;;;;5035450;28;20465;-88
2023/12/23 05:08:25;;;;;;;5.25;1.58;;;8.80;99.90;;;;;;5037117;28;19912;-88
2023/12/23 05:10:50;;;;;;;7.13;0.95;;;8.80;99.90;;;;;;5036910;28;20022;-88
2023/12/23 05:13:16;;;;;;;4.88;0.95;;;8.90;99.90;;;;;;5036875;28;20052;-88
2023/12/23 05:15:42;;;;;;;4.63;1.08;;;8.80;99.90;;;;;;5035878;28;20392;-88
2023/12/23 05:18:07;;;;;;;9.05;1.30;;;8.80;99.90;;;;;;5035725;28;20029;-88
2023/12/23 05:20:33;;;;;;;9.60;1.35;;;8.80;99.90;;;;;;5036883;28;20025;-88
2023/12/23 05:22:59;;;;;;;8.23;1.58;;;8.80;99.90;;;;;;5035489;28;20033;-87
2023/12/23 05:25:24;;;;;;;15.68;2.50;;;8.80;99.90;;;;;;5035582;28;20423;-87
2023/12/23 05:27:50;;;;;;;7.35;1.20;;;8.80;99.90;;;;;;5035516;28;20051;-88
2023/12/23 05:30:16;;;;;;;10.13;1.25;;;8.80;99.90;;;;;;5036444;28;20060;-88
2023/12/23 05:32:43;;;;;;;2.92;0.65;;;8.80;99.90;;;;;;5035323;28;20103;-88
2023/12/23 05:35:09;;;;;;;11.98;1.02;;;8.80;99.90;;;;;;5035373;28;20026;-87
2023/12/23 05:37:35;;;;;;;7.47;1.25;;;8.80;99.90;;;;;;5035609;28;20440;-88
2023/12/23 05:40:00;;;;;;;4.18;1.17;;;8.80;99.90;;;;;;5037350;28;20018;-88
2023/12/23 05:42:26;;;;;;;10.27;1.60;;;8.80;99.90;;;;;;5036082;28;20021;-88
2023/12/23 05:44:52;;;;;;;8.18;1.63;;;8.80;99.90;;;;;;5039345;28;20085;-88
2023/12/23 05:47:18;;;;;;;4.38;1.05;;;8.80;99.90;;;;;;5037110;28;20021;-88
2023/12/23 05:49:44;;;;;;;5.55;0.98;;;8.80;99.90;;;;;;5037178;28;20111;-86
2023/12/23 05:52:09;;;;;;;9.00;1.15;;;8.80;99.90;;;;;;5035991;28;20043;-88
2023/12/23 05:54:35;;;;;;;6.32;1.63;;;8.80;99.90;;;;;;5036061;28;20361;-87
2023/12/23 05:57:01;;;;;;;4.63;1.15;;;8.80;99.90;;;;;;5036591;28;20033;-87
2023/12/23 05:59:26;;;;;;;7.63;1.27;;;8.90;99.90;;;;;;5036295;28;20033;-87
2023/12/23 06:01:52;;;;;;;5.30;0.82;;;8.90;99.90;;;;;;5036040;28;20031;-86
2023/12/23 06:04:18;;;;;;;7.60;1.40;;;8.90;99.90;;;;;;5034518;28;20103;-87
2023/12/23 06:06:44;;;;;;;7.03;0.80;;;8.90;99.90;;;;;;5036051;28;20024;-87
2023/12/23 06:09:10;;;;;;;9.35;1.17;;;8.90;99.90;;;;;;5035905;28;20044;-87
2023/12/23 06:11:35;;;;;;;9.18;1.58;;;8.90;99.90;;;;;;5035762;28;20021;-87
2023/12/23 06:14:01;;;;;;;13.57;1.10;;;8.90;99.90;;;;;;5035946;28;20445;-87
2023/12/23 06:16:27;;;;;;;12.85;1.27;;;8.90;99.90;;;;;;5034659;28;20075;-87
2023/12/23 06:18:52;;;;;;;8.30;1.15;;;8.90;99.90;;;;;;5035101;28;20484;-87
2023/12/23 06:21:18;;;;;;;2.90;0.85;;;8.90;99.90;;;;;;5034501;28;20496;-87
2023/12/23 06:23:44;;;;;;;5.18;0.80;;;8.90;99.90;;;;;;5035818;28;20451;-88
2023/12/23 06:26:11;;;;;;;6.47;1.05;;;8.80;99.90;;;;;;5034372;28;20025;-87
2023/12/23 06:28:36;;;;;;;7.82;1.10;;;8.80;99.90;;;;;;5035638;28;20036;-87
2023/12/23 06:31:02;;;;;;;2.50;0.60;;;8.80;99.90;;;;;;5034576;28;20021;-87
2023/12/23 06:33:28;;;;;;;5.40;0.85;;;8.80;99.90;;;;;;5034364;28;20053;-88
2023/12/23 06:35:54;;;;;;;5.43;0.65;;;8.70;99.90;;;;;;5034692;28;20424;-88
2023/12/23 06:38:19;;;;;;;6.90;1.10;;;8.70;99.90;;;;;;5034367;28;20047;-88
2023/12/23 06:40:45;;;;;;;6.53;1.15;;;8.70;99.90;;;;;;5034291;28;20029;-89
2023/12/23 06:43:11;;;;;;;3.35;0.50;;;8.70;99.90;;;;;;5035388;28;20442;-88
2023/12/23 06:45:37;;;;;;;2.92;0.60;;;8.70;99.90;;;;;;5035513;28;20428;-88
2023/12/23 06:48:03;;;;;;;3.63;0.63;;;8.80;99.90;;;;;;5034412;28;20052;-88
2023/12/23 06:50:28;;;;;;;7.43;0.75;;;8.70;99.90;;;;;;5034163;28;20033;-87
2023/12/23 06:52:54;;;;;;;5.80;0.88;;;8.70;99.90;;;;;;5034990;28;20072;-87
2023/12/23 06:55:20;;;;;;;8.90;0.93;;;8.70;99.90;;;;;;5034062;28;20021;-88
2023/12/23 06:57:46;;;;;;;3.15;0.50;;;8.60;99.90;;;;;;5035336;28;20040;-88
2023/12/23 07:00:15;;;;;;;3.95;0.35;;;8.70;99.90;;;;;;5035731;28;20031;-88
2023/12/23 07:02:41;;;;;;;2.20;0.77;;;8.70;99.90;;;;;;5034141;28;20026;-87
2023/12/23 07:05:07;;;;;;;5.13;1.98;;;8.60;99.90;;;;;;5035678;28;20511;-88
2023/12/23 07:07:33;;;;;;;5.43;0.68;;;8.60;99.90;;;;;;5035947;28;20376;-88
2023/12/23 07:09:59;;;;;;;4.70;0.70;;;8.60;99.90;;;;;;5034286;28;20443;-88
2023/12/23 07:12:25;;;;;;;2.55;0.38;;;8.60;99.90;;;;;;5034232;28;20120;-88
2023/12/23 07:14:51;;;;;;;1.55;0.60;;;8.60;99.90;;;;;;5034891;28;20117;-88
2023/12/23 07:17:17;;;;;;;5.10;0.77;;;8.60;99.90;;;;;;5037725;28;20051;-88
2023/12/23 07:19:42;;;;;;;2.38;0.65;;;8.50;99.90;;;;;;5035946;28;20029;-87
2023/12/23 07:22:08;;;;;;;2.80;0.55;;;8.50;99.90;;;;;;5037249;28;20037;-88
2023/12/23 07:24:33;;;;;;;11.50;1.58;;;8.50;99.90;;;;;;5038361;28;20037;-87
2023/12/23 07:27:02;;;;;;;4.32;1.15;;;8.50;99.90;;;;;;5038075;28;20022;-88
2023/12/23 07:29:28;;;;;;;6.57;0.90;;;8.50;99.90;;;;;;5036973;28;20088;-88
2023/12/23 07:31:54;;;;;;;4.05;0.70;;;8.50;99.90;;;;;;5036821;28;20484;-88
2023/12/23 07:34:19;;;;;;;5.68;0.60;;;8.50;99.90;;;;;;5033978;28;20034;-87
2023/12/23 07:36:45;;;;;;;4.60;0.95;;;8.50;99.90;;;;;;5035644;28;20488;-87
2023/12/23 07:39:11;;;;;;;3.78;0.52;;;8.50;99.90;;;;;;5035315;28;20021;-88
2023/12/23 07:41:36;;;;;;;4.63;0.98;;;8.50;99.90;;;;;;5034255;28;20049;-89
2023/12/23 07:44:02;;;;;;;5.43;0.70;;;8.50;99.90;;;;;;5032698;28;20124;-89
2023/12/23 07:46:28;;;;;;;4.15;0.60;;;8.60;99.90;;;;;;5034414;28;20087;-89
2023/12/23 07:48:53;;;;;;;0.95;0.45;;;8.60;99.90;;;;;;5034762;28;20037;-89
2023/12/23 07:51:22;;;;;;;5.35;0.70;;;8.60;99.90;;;;;;5033231;28;20116;-89
2023/12/23 07:53:48;;;;;;;4.03;0.57;;;8.60;99.90;;;;;;5032755;28;20598;-88
2023/12/23 07:56:14;;;;;;;7.20;1.05;;;8.60;99.90;;;;;;5032943;28;20053;-89
2023/12/23 07:58:39;;;;;;;2.88;0.57;;;8.60;99.90;;;;;;5032925;28;20053;-89
2023/12/23 08:01:05;;;;;;;9.73;1.17;;;8.60;99.90;;;;;;5033978;28;20071;-89
2023/12/23 08:03:31;;;;;;;7.43;1.30;;;8.50;99.90;;;;;;5032888;28;20043;-88
2023/12/23 08:05:56;;;;;;;8.25;0.95;;;8.50;99.90;;;;;;5033765;28;20097;-88
2023/12/23 08:08:22;;;;;;;9.15;0.90;;;8.50;99.90;;;;;;5033910;28;20144;-88
2023/12/23 08:10:50;;;;;;;3.42;1.00;;;8.50;99.90;;;;;;5033754;28;20108;-88
2023/12/23 08:13:15;;;;;;;5.22;0.90;;;8.50;99.90;;;;;;5032455;28;20420;-89
2023/12/23 08:15:41;;;;;;;5.40;1.00;;;8.50;99.90;;;;;;5032597;28;20017;-88
2023/12/23 08:18:07;;;;;;;5.75;0.95;;;8.50;99.90;;;;;;5032343;28;20033;-88
2023/12/23 08:20:32;;;;;;;4.60;1.33;;;8.50;99.90;;;;;;5032616;28;20021;-88
2023/12/23 08:22:58;;;;;;;2.42;0.70;;;8.50;99.90;;;;;;5033629;28;20037;-88
2023/12/23 08:25:24;;;;;;;4.90;0.75;;;8.50;99.90;;;;;;5033018;28;20029;-88
2023/12/23 08:27:49;;;;;;;2.63;0.60;;;8.50;99.90;;;;;;5033824;28;20049;-86
2023/12/23 08:30:15;;;;;;;4.68;0.70;;;8.50;99.90;;;;;;5033655;28;20523;-89
2023/12/23 08:32:41;;;;;;;9.00;0.60;;;8.50;99.90;;;;;;5032340;28;20049;-89
2023/12/23 08:35:08;;;;;;;4.78;1.48;;;8.60;99.90;;;;;;5032296;28;20029;-90
2023/12/23 08:37:34;;;;;;;5.95;1.40;;;8.50;99.90;;;;;;5032230;28;20448;-88
2023/12/23 08:39:59;;;;;;;2.28;1.05;;;8.50;99.90;;;;;;5034123;28;20052;-88
2023/12/23 08:42:25;;;;;;;9.40;1.17;;;8.50;99.90;;;;;;5038651;28;20036;-89
2023/12/23 08:44:51;;;;;;;2.20;0.50;;;8.50;99.90;;;;;;5033295;28;20124;-88
2023/12/23 08:47:16;;;;;;;0.80;0.60;;;8.50;99.90;;;;;;5032667;28;20575;-88
2023/12/23 08:49:42;;;;;;;3.60;0.63;;;8.50;99.90;;;;;;5034304;28;20034;-89
2023/12/23 08:52:08;;;;;;;3.47;0.80;;;8.50;99.90;;;;;;5032171;28;20079;-89
2023/12/23 08:54:34;;;;;;;4.72;0.60;;;8.50;99.90;;;;;;5033345;28;20025;-89
2023/12/23 08:56:59;;;;;;;2.85;0.98;;;8.50;99.90;;;;;;5031910;28;20036;-88
2023/12/23 08:59:25;;;;;;;4.25;0.70;;;8.50;99.90;;;;;;5033196;28;20037;-88
2023/12/23 09:01:51;;;;;;;3.72;0.80;;;8.50;99.90;;;;;;5031794;28;20083;-87
2023/12/23 09:04:18;;;;;;;3.15;0.82;;;8.50;99.90;;;;;;5032859;28;20036;-88
2023/12/23 09:06:44;;;;;;;6.45;1.05;;;8.50;99.90;;;;;;5032235;28;20037;-88
2023/12/23 09:09:09;;;;;;;4.22;1.05;;;8.50;99.90;;;;;;5032233;28;20026;-88
2023/12/23 09:11:44;;;;;;;4.18;1.00;;;8.50;99.90;;;;;;5032030;28;20022;-88
2023/12/23 09:14:10;;;;;;;5.65;0.90;;;8.50;99.90;;;;;;5032695;28;20100;-88
2023/12/23 09:16:36;;;;;;;3.97;1.10;;;8.50;99.90;;;;;;5031635;28;20036;-87
2023/12/23 09:19:03;;;;;;;3.95;0.88;;;8.50;99.90;;;;;;5031964;28;20419;-87
2023/12/23 09:21:29;;;;;;;2.65;1.27;;;8.50;99.90;;;;;;5031955;28;20032;-88
2023/12/23 09:23:55;;;;;;;4.15;0.98;;;8.50;99.90;;;;;;5031929;28;20064;-89
2023/12/23 09:26:21;;;;;;;1.65;0.57;;;8.50;99.90;;;;;;5032029;28;20476;-88
2023/12/23 09:28:46;;;;;;;3.15;0.75;;;8.50;99.90;;;;;;5031833;28;20052;-88
2023/12/23 09:31:12;;;;;;;5.97;1.40;;;8.50;99.90;;;;;;5032965;28;20025;-88
2023/12/23 09:33:39;;;;;;;1.73;0.90;;;8.50;99.90;;;;;;5032623;28;20540;-87
2023/12/23 09:36:05;;;;;;;6.50;0.90;;;8.50;99.90;;;;;;5032234;28;20021;-88
2023/12/23 09:38:31;;;;;;;8.00;1.30;;;8.50;99.90;;;;;;5033144;28;20033;-88
2023/12/23 09:40:57;;;;;;;4.10;1.35;;;8.50;99.90;;;;;;5031936;28;20022;-88
2023/12/23 09:43:24;;;;;;;6.93;1.60;;;8.50;99.90;;;;;;5031809;28;20049;-88
2023/12/23 09:45:51;;;;;;;4.43;1.15;;;8.50;99.90;;;;;;5031665;28;20263;-88
2023/12/23 09:48:17;;;;;;;4.38;1.15;;;8.50;99.90;;;;;;5033040;28;20052;-89
2023/12/23 09:50:44;;;;;;;4.80;1.30;;;8.50;99.90;;;;;;5033417;28;20026;-88
2023/12/23 09:53:13;;;;;;;12.50;1.60;;;8.50;99.90;;;;;;5034336;28;20033;-88
2023/12/23 09:55:40;;;;;;;6.28;2.28;;;8.50;99.90;;;;;;5035856;28;20029;-88
2023/12/23 09:58:06;;;;;;;5.30;1.17;;;8.50;99.90;;;;;;5036113;28;20179;-87
2023/12/23 10:00:32;;;;;;;8.85;1.95;;;8.50;99.90;;;;;;5036826;28;20176;-88
2023/12/23 10:02:59;;;;;;;3.67;1.33;;;8.50;99.90;;;;;;5037388;28;20120;-88
2023/12/23 10:05:29;;;;;;;2.17;1.00;;;8.50;99.90;;;;;;5036134;28;20032;-88
2023/12/23 10:07:58;;;;;;;5.20;1.20;;;8.50;99.90;;;;;;5035521;28;20116;-88
2023/12/23 10:10:31;;;;;;;6.05;1.40;;;8.60;99.90;;;;;;5034772;28;20112;-87
2023/12/23 10:12:56;;;;;;;5.63;1.60;;;8.60;99.90;;;;;;5034578;28;20029;-88
2023/12/23 10:15:22;;;;;;;8.68;1.15;;;8.50;99.90;;;;;;5034605;28;20033;-87
2023/12/23 10:17:48;;;;;;;7.72;1.27;;;8.60;99.90;;;;;;5034581;28;20029;-87
2023/12/23 10:20:14;;;;;;;3.22;1.08;;;8.60;99.90;;;;;;5035662;28;20032;-87
2023/12/23 10:22:47;;;;;;;6.15;1.00;;;8.60;99.90;;;;;;5034584;28;20052;-87
2023/12/23 10:25:14;;;;;;;2.17;0.85;;;8.60;99.90;;;;;;5035673;28;20032;-87
2023/12/23 10:27:43;;;;;;;3.05;0.80;;;8.60;99.90;;;;;;5034466;28;20029;-87
2023/12/23 10:30:10;;;;;;;18.42;2.03;;;8.60;99.90;;;;;;5034107;28;20496;-87
2023/12/23 10:32:38;;;;;;;3.90;0.98;;;8.70;99.90;;;;;;5035092;28;20099;-87
2023/12/23 10:35:06;;;;;;;7.18;2.70;;;8.70;99.90;;;;;;5034059;28;20033;-87
2023/12/23 10:37:34;;;;;;;5.50;2.10;;;8.70;99.90;;;;;;5035412;28;20022;-88
2023/12/23 10:40:21;;;;;;;7.47;1.83;;;8.70;99.90;;;;;;5033950;28;20393;-88
2023/12/23 10:42:48;;;;;;;2.60;1.27;;;8.70;99.90;;;;;;5035236;28;20535;-87
2023/12/23 10:45:15;;;;;;;1.65;1.20;;;8.70;99.90;;;;;;5033885;28;20079;-88
2023/12/23 10:47:43;;;;;;;3.60;1.67;;;8.70;99.90;;;;;;5034115;28;20056;-88
2023/12/23 10:50:11;;;;;;;4.38;2.35;;;8.70;99.90;;;;;;5035105;28;20132;-88
2023/12/23 10:52:37;;;;;;;3.55;2.33;;;8.70;99.90;;;;;;5033823;28;20034;-87
2023/12/23 10:55:04;;;;;;;5.35;2.47;;;8.70;99.90;;;;;;5033976;28;20025;-87
2023/12/23 10:57:31;;;;;;;4.85;2.67;;;8.70;99.90;;;;;;5033901;28;20022;-88
2023/12/23 10:59:57;;;;;;;7.00;3.25;;;8.70;99.90;;;;;;5033370;28;20025;-87
2023/12/23 11:02:31;;;;;;;7.80;3.45;;;8.80;99.90;;;;;;5033740;28;20032;-87
2023/12/23 11:04:59;;;;;;;5.55;3.90;;;8.80;99.90;;;;;;5034773;28;20180;-87
2023/12/23 11:07:30;;;;;;;3.30;2.40;;;8.80;99.90;;;;;;5034164;28;20036;-88
2023/12/23 11:10:01;;;;;;;4.18;2.28;;;8.80;99.90;;;;;;5034939;28;20099;-87
2023/12/23 11:12:30;;;;;;;;;;;8.80;99.90;;;;;;5035099;28;20025;-87
2023/12/23 11:14:58;;;;;;;4.57;2.83;;;8.80;99.90;;;;;;5034557;28;19905;-88
2023/12/23 11:17:26;;;;;;;5.85;3.45;;;8.80;99.90;;;;;;5034540;28;20021;-88
2023/12/23 11:19:57;;;;;;;3.33;2.17;;;8.80;99.90;;;;;;5033154;28;20030;-87
2023/12/23 11:22:28;;;;;;;4.55;3.22;;;8.80;99.90;;;;;;5033404;28;20026;-87
2023/12/23 11:24:54;;;;;;;11.00;4.70;;;8.80;99.90;;;;;;5034560;28;20045;-88
2023/12/23 11:27:33;;;;;;;7.55;4.57;;;8.80;99.90;;;;;;5033180;28;20036;-88
2023/12/23 11:30:07;;;;;;;7.53;4.28;;;8.80;99.90;;;;;;5033138;28;20037;-88
2023/12/23 11:32:41;;;;;;;8.38;4.10;;;8.80;99.90;;;;;;5033102;28;20147;-88
2023/12/23 11:35:12;;;;;;;9.27;5.03;;;8.80;99.90;;;;;;5032964;28;20060;-88
2023/12/23 11:37:55;;;;;;;12.50;5.57;;;8.80;99.90;;;;;;5032936;28;20026;-88
2023/12/23 11:40:22;;;;;;;6.85;5.15;;;8.90;99.90;;;;;;5033947;28;20029;-87
2023/12/23 11:42:49;;;;;;;6.88;5.68;;;8.90;99.90;;;;;;5033941;28;20425;-88
2023/12/23 11:45:16;;;;;;;8.55;6.13;;;8.90;99.90;;;;;;5034249;28;20056;-87
2023/12/23 11:47:42;;;;;;;6.93;5.72;;;8.90;99.90;;;;;;5034018;28;20053;-89
2023/12/23 11:50:09;;;;;;;10.90;5.70;;;8.90;99.90;;;;;;5032964;28;20429;-88
2023/12/23 11:52:38;;;;;;;8.70;6.40;;;8.90;99.90;;;;;;5033026;28;20048;-88
2023/12/23 11:55:04;;;;;;;7.18;4.15;;;8.90;99.90;;;;;;5032724;28;20030;-87
2023/12/23 11:57:31;;;;;;;4.15;2.53;;;8.90;99.90;;;;;;5033943;28;20380;-88
2023/12/23 11:59:58;;;;;;;3.33;2.38;;;8.90;99.90;;;;;;5032533;28;20033;-87
2023/12/23 12:02:27;;;;;;;3.05;1.50;;;8.90;99.90;;;;;;5032564;28;20111;-88
2023/12/23 12:04:53;;;;;;;2.25;1.33;;;8.90;99.90;;;;;;5032462;28;20175;-88
2023/12/23 12:07:21;;;;;;;4.65;1.55;;;8.90;99.90;;;;;;5033693;28;20057;-88
2023/12/23 12:09:47;;;;;;;1.27;1.00;;;8.90;99.90;;;;;;5032389;28;20025;-88
2023/12/23 12:12:13;;;;;;;2.20;1.50;;;8.90;99.90;;;;;;5032200;28;20029;-87
2023/12/23 12:14:40;;;;;;;2.67;1.55;;;8.90;99.90;;;;;;5031835;28;20030;-87
2023/12/23 12:17:07;;;;;;;3.78;1.83;;;8.90;99.90;;;;;;5032211;28;20040;-88
2023/12/23 12:19:33;;;;;;;4.40;2.63;;;8.90;99.90;;;;;;5032213;28;20488;-87
2023/12/23 12:21:59;;;;;;;8.90;3.47;;;8.90;99.90;;;;;;5033377;28;20061;-88
2023/12/23 12:24:26;;;;;;;5.65;3.60;;;8.90;99.90;;;;;;5033310;28;20065;-88
2023/12/23 12:26:56;;;;;;;5.43;3.78;;;8.90;99.90;;;;;;5032194;28;20083;-88
2023/12/23 12:29:22;;;;;;;;;;;8.90;99.90;;;;;;5032614;28;20037;-87
2023/12/23 12:31:55;;;;;;;7.38;3.83;;;8.90;99.90;;;;;;5031772;28;19986;-88
2023/12/23 12:34:24;;;;;;;7.03;3.70;;;8.90;99.90;;;;;;5030367;28;20037;-87
2023/12/23 12:36:53;;;;;;;3.92;2.65;;;8.90;99.90;;;;;;5033306;28;20020;-88
2023/12/23 12:39:23;;;;;;;3.75;2.80;;;8.90;99.90;;;;;;5032035;28;20034;-88
2023/12/23 12:41:50;;;;;;;2.75;1.73;;;8.90;99.90;;;;;;5032849;28;20489;-88
2023/12/23 12:44:16;;;;;;;2.20;1.58;;;8.90;99.90;;;;;;5032279;28;20495;-87
2023/12/23 12:46:54;;;;;;;3.33;1.60;;;8.90;99.90;;;;;;5031693;28;20052;-87
2023/12/23 12:49:23;;;;;;;7.05;2.00;;;8.90;99.90;;;;;;5032199;28;20127;-87
2023/12/23 12:51:53;;;;;;;2.72;1.70;;;8.90;99.90;;;;;;5032850;28;20060;-88